Bristolville, Ohio
Current Conditions -  °F | °C
As of 1:51 AM on Friday 19 Dec 2014 (Local Time) from KYNG Reporting Station
Freezing Drizzle Freezing Drizzle  
Wind Chill: 20°   Ceiling: 400
Heat Index: 29°   Visibility: 5mi
Dew Point: 27°   Wind: 10mph
Humidity: 92%   Direction: 250°WSW
Pressure: 30.12"   Gusts: NA
Location:  41.39°N, 80.87°W
Report Text: KYNG 190651Z 25009KT 5SM -FZDZ BR OVC004 M02/M03 A3012 RMK AO2 SLP213 P0000 I1001 T10171028
Loading
Personal Weather Stations






























Interactive Weather Map New forecast layout! Learn more

10-Day Weather Forecast

Advertisements
Track Severe Weather on mobile